SBSN/STM METAR and TAF weather

Enter ICAO airport designator
Station Type Date Time Source
SBSN METAR 2022/01/26 13:00 UTC NOAA

SBSN 261300Z 09006KT 9999 SCT013 BKN100 27/25 Q1012


Station Type Date Time Source
SBSN Decoded METAR 2022/01/26 13:00 UTC NOAA

Santarem-Aeroporto, Brazil (SBSN) 02-26S 054-43W 72M
Jan 26, 2022 - 08:00 AM EST / 2022.01.26 1300 UTC
Wind: from the E (090 degrees) at 7 MPH (6 KT):0
Visibility: greater than 7 mile(s):0
Sky conditions: mostly cloudy
Temperature: 80 F (27 C)
Dew Point: 77 F (25 C)
Relative Humidity: 88%
Pressure (altimeter): 29.88 in. Hg (1012 hPa)
ob: SBSN 261300Z 09006KT 9999 SCT013 BKN100 27/25 Q1012
cycle: 13

Station Type Date Time Source
SBSN TAF 2022/01/26 12:12 UTC NOAA

TAF TAF SBSN 260910Z 2612/2712 09007KT 9999 SCT015 FEW020TCU TX29/2619Z TN24/2708Z
TEMPO 2612/2615 6000 SHRA SCT010 BKN015 FEW025TCU
BECMG 2615/2617 07012KT SCT020
BECMG 2617/2619 15007KT FEW020
BECMG 2622/2624 18005KT FEW020 FEW025TCU
BECMG 2700/2702 06007KT TS SCT020 FEW025CB
BECMG 2703/2705 4000 TSRA SCT010 BKN015 FEW020CB
BECMG 2711/2712 08010KT 9999 NSW SCT015 FEW020TCU
RMK PFV

Example: see airport list